Impacts METAR Board
IDs:

KMEM - Memphis Intl, TN, US

Updated at: 1300 UTC 07 Jul 2020
Potential Impact None Slight Moderate High
Time 07/01Z 07/02Z 07/03Z 07/04Z 07/05Z 07/06Z 07/07Z 07/08Z 07/09Z 07/10Z 07/11Z 07/12Z 07/13Z
Temp85 78 81 81 80 77 78 77 75 75 74 76 80
Dewpt71 70 70 68 70 70 70 69 70 70 70 72 72
Altim29.93 29.94 29.96 29.97 29.97 29.96 29.96 29.95 29.96 29.96 29.97 29.98 30.00
VIS10 10 10 10 10 10 10 10 10 10 10 10 10
CIG75 -- 47 -- -- -- -- -- -- -- -- -- --
CoverBKNSCTBKNSCTSCTFEWFEWFEWFEWCLRFEWFEWFEW
FltCatVFRVFRVFRVFRVFRVFRVFRVFRVFRVFRVFRVFRVFR
WXTS------------------------
WDir1103008030190170002300000
WSpd8 5 5 5 3 4 0 0 3 0 0 0 0
WGst-- -- -- -- -- -- -- -- -- -- -- -- --
Raw hourly METARs
KMEM 070054Z 11008KT 10SM TS SCT060CB BKN075 BKN110 BKN190 29/22 A2993 RMK AO2 TSB33 SLP131 TS SE MOV NW T02940217
KMEM 070154Z 30005KT 10SM SCT085 SCT110 SCT190 26/21 A2994 RMK AO2 TSE08E24 SLP133 T02560211
KMEM 070254Z 08005KT 10SM BKN047 BKN095 BKN200 27/21 A2996 RMK AO2 SLP140 T02720211 53014
KMEM 070354Z 03005KT 10SM FEW047 FEW055 SCT075 27/20 A2997 RMK AO2 RAB27E36 SLP143 P0000 T02720200
KMEM 070454Z 19003KT 10SM SCT043 SCT055 SCT200 27/21 A2997 RMK AO2 SLP145 T02670211
KMEM 070554Z 17004KT 10SM FEW160 25/21 A2996 RMK AO2 SLP142 60000 T02500211 10322 20250 403330228 50001
KMEM 070654Z 00000KT 10SM FEW160 26/21 A2996 RMK AO2 SLP139 T02560211
KMEM 070754Z 00000KT 10SM FEW039 FEW180 25/21 A2995 RMK AO2 SLP137 T02500206
KMEM 070854Z 23003KT 10SM FEW040 24/21 A2996 RMK AO2 SLP139 T02390211 55002
KMEM 070954Z 00000KT 10SM CLR 24/21 A2996 RMK AO2 SLP141 T02390211
KMEM 071054Z 00000KT 10SM FEW150 FEW250 23/21 A2997 RMK AO2 SLP145 T02330211
KMEM 071154Z 00000KT 10SM FEW150 FEW250 24/22 A2998 RMK AO2 SLP149 70004 T02440222 10267 20228 53009
KMEM 071254Z 00000KT 10SM FEW150 27/22 A3000 RMK AO2 SLP155 T02670222



Page loaded:  13:49 UTC  |   06:49 AM Pacific  |   07:49 AM Mountain  |   08:49 AM Central  |   09:49 AM Eastern

 

ADVISORIES

FORECASTS

FORECASTS

OBSERVATIONS

USER TOOLS

ABOUT US